Time;durP1;ratioP1;P1;durP2;ratioP2;P2;SDS_P1;SDS_P2;PMS_P1;PMS_P2;Temp;Humidity;BMP_temperature;BMP_pressure;BME280_temperature;BME280_humidity;BME280_pressure;Samples;Min_cycle;Max_cycle;Signal;HPM_P1;HPM_P2
2021/09/28 00:00:56;;;;;;;;;;;14.20;99.90;;;;;;5080800;28;19927;-87
2021/09/28 00:03:22;;;;;;;;;;;14.10;99.90;;;;;;5053297;28;19908;-88
2021/09/28 00:05:48;;;;;;;;;;;14.00;99.90;;;;;;5053446;28;19909;-87
2021/09/28 00:08:14;;;;;;;;;;;13.90;99.90;;;;;;5051797;28;19909;-88
2021/09/28 00:10:40;;;;;;;;;;;13.90;99.90;;;;;;5047414;28;19908;-90
2021/09/28 00:13:06;;;;;;;;;;;13.90;99.90;;;;;;5042121;28;19915;-88
2021/09/28 00:15:31;;;;;;;;;;;13.80;99.90;;;;;;5071381;28;19915;-87
2021/09/28 00:17:57;;;;;;;;;;;13.80;99.90;;;;;;5070114;28;19995;-88
2021/09/28 00:20:23;;;;;;;;;;;13.80;99.90;;;;;;5044455;28;19909;-88
2021/09/28 00:22:53;;;;;;;;;;;13.90;99.90;;;;;;5056445;28;20294;-88
2021/09/28 00:25:20;;;;;;;;;;;13.80;99.90;;;;;;5042911;28;19962;-88
2021/09/28 00:27:45;;;;;;;;;;;13.80;99.90;;;;;;5055582;28;19937;-89
2021/09/28 00:30:11;;;;;;;;;;;13.50;99.90;;;;;;5051731;28;20253;-90
2021/09/28 00:32:36;;;;;;;;;;;13.30;99.90;;;;;;5057044;28;19920;-90
2021/09/28 00:35:02;;;;;;;;;;;13.20;99.90;;;;;;5074729;28;19908;-87
2021/09/28 00:37:27;;;;;;;;;;;13.10;99.90;;;;;;5043617;28;19909;-87
2021/09/28 00:39:53;;;;;;;;;;;13.00;99.90;;;;;;5050711;28;19908;-85
2021/09/28 00:42:18;;;;;;;;;;;12.70;99.90;;;;;;5037272;28;19913;-88
2021/09/28 00:44:44;;;;;;;;;;;12.40;99.90;;;;;;5074292;28;19913;-87
2021/09/28 00:47:10;;;;;;;;;;;12.30;99.90;;;;;;5056496;28;19948;-87
2021/09/28 00:49:44;;;;;;;;;;;12.10;99.90;;;;;;5065288;28;19909;-88
2021/09/28 00:52:10;;;;;;;;;;;12.10;99.90;;;;;;5047832;28;19909;-86
2021/09/28 00:54:37;;;;;;;;;;;12.10;99.90;;;;;;5067839;28;19915;-86
2021/09/28 00:57:06;;;;;;;;;;;12.10;99.90;;;;;;5074409;28;19917;-87
2021/09/28 00:59:34;;;;;;;;;;;12.10;99.90;;;;;;5056440;28;19915;-85
2021/09/28 01:01:59;;;;;;;;;;;12.10;99.90;;;;;;5050287;28;20032;-86
2021/09/28 01:04:25;;;;;;;;;;;12.00;99.90;;;;;;5055602;28;19963;-86
2021/09/28 01:06:51;;;;;;;;;;;11.90;99.90;;;;;;5056568;28;19908;-87
2021/09/28 01:09:16;;;;;;;;;;;12.00;99.90;;;;;;5057533;28;19912;-86
2021/09/28 01:11:41;;;;;;;;;;;11.90;99.90;;;;;;5056010;28;19916;-85
2021/09/28 01:14:07;;;;;;;;;;;12.00;99.90;;;;;;5055736;28;19958;-86
2021/09/28 01:16:34;;;;;;;;;;;12.00;99.90;;;;;;5056504;28;19943;-86
2021/09/28 01:18:59;;;;;;;;;;;12.10;99.90;;;;;;5056004;28;19912;-86
2021/09/28 01:21:25;;;;;;;;;;;12.00;99.90;;;;;;5040127;28;19920;-86
2021/09/28 01:23:50;;;;;;;;;;;12.10;99.90;;;;;;5041252;28;19915;-86
2021/09/28 01:26:17;;;;;;;;;;;12.10;99.90;;;;;;5053026;28;19987;-85
2021/09/28 01:28:43;;;;;;;;;;;12.10;99.90;;;;;;5071563;28;20363;-86
2021/09/28 01:31:09;;;;;;;;;;;12.10;99.90;;;;;;5045140;28;19909;-86
2021/09/28 01:33:34;;;;;;;;;;;12.10;99.90;;;;;;5048659;28;19931;-86
2021/09/28 01:36:00;;;;;;;;;;;12.10;99.90;;;;;;5052452;28;19919;-88
2021/09/28 01:38:25;;;;;;;;;;;12.20;99.90;;;;;;5052703;28;19999;-86
2021/09/28 01:40:51;;;;;;;;;;;12.20;99.90;;;;;;5055666;28;19955;-86
2021/09/28 01:43:16;;;;;;;;;;;12.30;99.90;;;;;;5045811;28;19917;-86
2021/09/28 01:45:43;;;;;;;;;;;12.30;99.90;;;;;;5052016;28;19912;-86
2021/09/28 01:48:08;;;;;;;;;;;12.30;99.90;;;;;;5055629;28;19908;-86
2021/09/28 01:50:34;;;;;;;;;;;12.30;99.90;;;;;;5067014;28;20498;-86
2021/09/28 01:53:00;;;;;;;;;;;12.30;99.90;;;;;;5062131;28;19912;-86
2021/09/28 01:55:26;;;;;;;;;;;12.20;99.90;;;;;;5055202;28;19921;-86
2021/09/28 01:57:56;;;;;;;;;;;12.20;99.90;;;;;;5055154;28;19913;-85
2021/09/28 02:00:22;;;;;;;;;;;12.20;99.90;;;;;;5072456;28;19912;-86
2021/09/28 02:02:47;;;;;;;;;;;12.20;99.90;;;;;;5055046;28;19915;-86
2021/09/28 02:05:13;;;;;;;;;;;12.10;99.90;;;;;;5055055;28;19908;-86
2021/09/28 02:07:38;;;;;;;;;;;12.10;99.90;;;;;;5072952;28;19997;-86
2021/09/28 02:10:04;;;;;;;;;;;12.10;99.90;;;;;;5047612;28;19943;-86
2021/09/28 02:12:30;;;;;;;;;;;12.10;99.90;;;;;;5049105;28;19908;-87
2021/09/28 02:14:56;;;;;;;;;;;12.00;99.90;;;;;;5043421;28;19915;-85
2021/09/28 02:17:21;;;;;;;;;;;12.00;99.90;;;;;;5059053;28;20280;-86
2021/09/28 02:19:47;;;;;;;;;;;12.00;99.90;;;;;;5056130;28;19913;-86
2021/09/28 02:22:12;;;;;;;;;;;12.00;99.90;;;;;;5067473;28;19913;-85
2021/09/28 02:24:38;;;;;;;;;;;11.90;99.90;;;;;;5088403;28;19916;-87
2021/09/28 02:27:04;;;;;;;;;;;11.90;99.90;;;;;;5055153;28;20343;-88
2021/09/28 02:29:29;;;;;;;;;;;11.80;99.90;;;;;;5054852;28;20307;-87
2021/09/28 02:31:55;;;;;;;;;;;11.80;99.90;;;;;;5072515;28;20280;-87
2021/09/28 02:34:20;;;;;;;;;;;11.70;99.90;;;;;;5054319;28;20261;-87
2021/09/28 02:36:45;;;;;;;;;;;11.70;99.90;;;;;;5054396;28;20007;-87
2021/09/28 02:39:11;;;;;;;;;;;11.70;99.90;;;;;;5043132;28;19909;-87
2021/09/28 02:41:36;;;;;;;;;;;11.60;99.90;;;;;;5052773;28;20501;-88
2021/09/28 02:44:03;;;;;;;;;;;11.60;99.90;;;;;;5070574;28;19916;-87
2021/09/28 02:46:29;;;;;;;;;;;11.60;99.90;;;;;;5070585;28;19915;-87
2021/09/28 02:48:55;;;;;;;;;;;11.60;99.90;;;;;;5063708;28;19913;-87
2021/09/28 02:51:20;;;;;;;;;;;11.60;99.90;;;;;;5039438;28;19909;-88
2021/09/28 02:53:46;;;;;;;;;;;11.50;99.90;;;;;;5050882;28;19908;-88
2021/09/28 02:56:11;;;;;;;;;;;11.50;99.90;;;;;;5051486;28;20421;-87
2021/09/28 02:58:37;;;;;;;;;;;11.60;99.90;;;;;;5056078;28;20007;-87
2021/09/28 03:01:02;;;;;;;;;;;11.50;99.90;;;;;;5051599;28;19913;-86
2021/09/28 03:03:28;;;;;;;;;;;11.50;99.90;;;;;;5047801;28;20562;-88
2021/09/28 03:05:53;;;;;;;;;;;11.40;99.90;;;;;;5068328;28;20291;-87
2021/09/28 03:08:19;;;;;;;;;;;11.40;99.90;;;;;;5054049;28;19918;-87
2021/09/28 03:10:44;;;;;;;;;;;11.50;99.90;;;;;;5053944;28;19915;-87
2021/09/28 03:13:11;;;;;;;;;;;11.50;99.90;;;;;;5039178;28;19909;-87
2021/09/28 03:15:36;;;;;;;;;;;11.40;99.90;;;;;;5043244;28;20600;-88
2021/09/28 03:18:02;;;;;;;;;;;11.50;99.90;;;;;;5071934;28;19962;-87
2021/09/28 03:20:27;;;;;;;;;;;11.40;99.90;;;;;;5044605;28;19909;-87
2021/09/28 03:22:53;;;;;;;;;;;11.40;99.90;;;;;;5035289;28;19909;-87
2021/09/28 03:25:18;;;;;;;;;;;11.30;99.90;;;;;;5053951;28;19955;-88
2021/09/28 03:27:44;;;;;;;;;;;11.20;99.90;;;;;;5047886;28;20403;-87
2021/09/28 03:30:10;;;;;;;;;;;11.20;99.90;;;;;;5034714;28;19909;-86
2021/09/28 03:32:38;;;;;;;;;;;11.10;99.90;;;;;;5058697;28;20004;-86
2021/09/28 03:35:08;;;;;;;;;;;11.00;99.90;;;;;;5040667;28;20004;-86
2021/09/28 03:37:35;;;;;;;;;;;10.90;99.90;;;;;;5047719;28;19915;-87
2021/09/28 03:40:00;;;;;;;;;;;10.90;99.90;;;;;;5047665;28;19908;-86
2021/09/28 03:42:26;;;;;;;;;;;10.80;99.90;;;;;;5052375;28;19919;-86
2021/09/28 03:44:53;;;;;;;;;;;10.70;99.90;;;;;;5040780;28;19913;-87
2021/09/28 03:47:19;;;;;;;;;;;10.60;99.90;;;;;;5047961;28;19915;-87
2021/09/28 03:49:44;;;;;;;;;;;10.50;99.90;;;;;;5054238;28;19909;-86
2021/09/28 03:52:10;;;;;;;;;;;10.40;99.90;;;;;;5039154;28;19908;-85
2021/09/28 03:54:35;;;;;;;;;;;10.30;99.90;;;;;;5046555;28;19930;-86
2021/09/28 03:57:00;;;;;;;;;;;10.10;99.90;;;;;;5055674;28;19916;-86
2021/09/28 03:59:26;;;;;;;;;;;10.00;99.90;;;;;;5045642;28;20003;-86
2021/09/28 04:01:51;;;;;;;;;;;10.00;99.90;;;;;;5051300;28;19913;-86
2021/09/28 04:04:17;;;;;;;;;;;10.00;99.90;;;;;;5057616;28;19913;-86
2021/09/28 04:06:42;;;;;;;;;;;9.90;99.90;;;;;;5074030;28;20322;-86
2021/09/28 04:09:08;;;;;;;;;;;9.80;99.90;;;;;;5074070;28;19908;-85
2021/09/28 04:11:33;;;;;;;;;;;9.70;99.90;;;;;;5074088;28;20003;-86
2021/09/28 04:13:59;;;;;;;;;;;9.60;99.90;;;;;;5073516;28;20027;-86
2021/09/28 04:16:27;;;;;;;;;;;9.50;99.90;;;;;;5074366;28;19909;-86
2021/09/28 04:18:53;;;;;;;;;;;9.50;99.90;;;;;;5057432;28;19908;-87
2021/09/28 04:21:18;;;;;;;;;;;9.40;99.90;;;;;;5060920;28;19912;-86
2021/09/28 04:23:44;;;;;;;;;;;9.40;99.90;;;;;;5045422;28;19999;-87
2021/09/28 04:26:11;;;;;;;;;;;9.40;99.90;;;;;;5065236;28;19909;-86
2021/09/28 04:28:36;;;;;;;;;;;9.30;99.90;;;;;;5047762;28;19908;-86
2021/09/28 04:31:02;;;;;;;;;;;9.30;99.90;;;;;;5050853;28;19912;-86
2021/09/28 04:33:27;;;;;;;;;;;9.10;99.90;;;;;;5055333;28;19909;-86
2021/09/28 04:35:53;;;;;;;;;;;9.00;99.90;;;;;;5055543;28;20002;-86
2021/09/28 04:38:18;;;;;;;;;;;9.00;99.90;;;;;;5055584;28;19909;-86
2021/09/28 04:40:44;;;;;;;;;;;9.10;99.90;;;;;;5050595;28;19908;-87
2021/09/28 04:43:09;;;;;;;;;;;9.00;99.90;;;;;;5051809;28;19909;-86
2021/09/28 04:45:35;;;;;;;;;;;8.90;99.90;;;;;;5056839;28;19908;-86
2021/09/28 04:48:00;;;;;;;;;;;8.80;99.90;;;;;;5049156;28;19909;-86
2021/09/28 04:50:26;;;;;;;;;;;8.80;99.90;;;;;;5046080;28;19909;-86
2021/09/28 04:52:51;;;;;;;;;;;8.70;99.90;;;;;;5048776;28;19947;-86
2021/09/28 04:55:17;;;;;;;;;;;8.60;99.90;;;;;;5053648;28;19913;-85
2021/09/28 04:57:42;;;;;;;;;;;8.60;99.90;;;;;;5056585;28;19952;-87
2021/09/28 05:00:10;;;;;;;;;;;8.50;99.90;;;;;;5056404;28;19908;-86
2021/09/28 05:02:36;;;;;;;;;;;8.50;99.90;;;;;;5069835;28;20375;-86
2021/09/28 05:05:02;;;;;;;;;;;8.50;99.90;;;;;;5037265;28;20058;-86
2021/09/28 05:07:27;;;;;;;;;;;8.50;99.90;;;;;;5055516;28;19998;-85
2021/09/28 05:09:53;;;;;;;;;;;8.50;99.90;;;;;;5072642;28;19970;-86
2021/09/28 05:12:20;;;;;;;;;;;8.50;99.90;;;;;;5072735;28;19908;-85
2021/09/28 05:14:45;;;;;;;;;;;8.40;99.90;;;;;;5055431;28;19991;-85
2021/09/28 05:17:11;;;;;;;;;;;8.40;99.90;;;;;;5036863;28;19940;-86
2021/09/28 05:19:36;;;;;;;;;;;8.40;99.90;;;;;;5055811;28;20287;-85
2021/09/28 05:22:02;;;;;;;;;;;8.30;99.90;;;;;;5048748;28;19912;-86
2021/09/28 05:24:27;;;;;;;;;;;8.30;99.90;;;;;;5038745;28;19959;-85
2021/09/28 05:26:53;;;;;;;;;;;8.20;99.90;;;;;;5053871;28;19956;-86
2021/09/28 05:29:18;;;;;;;;;;;8.30;99.90;;;;;;5056058;28;19908;-86
2021/09/28 05:31:44;;;;;;;;;;;8.30;99.90;;;;;;5055712;28;19930;-86
2021/09/28 05:34:09;;;;;;;;;;;8.30;99.90;;;;;;5055411;28;19954;-86
2021/09/28 05:36:35;;;;;;;;;;;8.30;99.90;;;;;;5055975;28;20336;-85
2021/09/28 05:39:00;;;;;;;;;;;8.40;99.90;;;;;;5073548;28;19908;-85
2021/09/28 05:41:27;;;;;;;;;;;8.40;99.90;;;;;;5039757;28;19917;-83
2021/09/28 05:43:52;;;;;;;;;;;8.40;99.90;;;;;;5049171;28;19912;-84
2021/09/28 05:46:18;;;;;;;;;;;8.40;99.90;;;;;;5038652;28;19916;-85
2021/09/28 05:48:43;;;;;;;;;;;8.30;99.90;;;;;;5053471;28;19908;-84
2021/09/28 05:51:16;;;;;;;;;;;8.40;99.90;;;;;;5052370;28;19916;-85
2021/09/28 05:53:44;;;;;;;;;;;8.40;99.90;;;;;;5038906;28;19912;-85
2021/09/28 05:56:09;;;;;;;;;;;8.40;99.90;;;;;;5046014;28;20383;-86
2021/09/28 05:58:35;;;;;;;;;;;8.40;99.90;;;;;;5069308;28;19976;-84
2021/09/28 06:01:00;;;;;;;;;;;8.40;99.90;;;;;;5056021;28;19920;-85
2021/09/28 06:03:26;;;;;;;;;;;8.40;99.90;;;;;;5054870;28;19962;-86
2021/09/28 06:05:52;;;;;;;;;;;8.50;99.90;;;;;;5047117;28;19908;-85
2021/09/28 06:08:17;;;;;;;;;;;8.70;99.90;;;;;;5050569;28;19962;-85
2021/09/28 06:10:43;;;;;;;;;;;8.70;99.90;;;;;;5065174;28;19971;-86
2021/09/28 06:13:08;;;;;;;;;;;8.80;99.90;;;;;;5053407;28;19912;-85
2021/09/28 06:15:34;;;;;;;;;;;8.80;99.90;;;;;;5048811;28;19931;-85
2021/09/28 06:17:59;;;;;;;;;;;8.90;99.90;;;;;;5048839;28;19908;-85
2021/09/28 06:20:25;;;;;;;;;;;9.00;99.90;;;;;;5057561;28;20331;-86
2021/09/28 06:22:50;;;;;;;;;;;9.10;99.90;;;;;;5061420;28;20364;-85
2021/09/28 06:25:16;;;;;;;;;;;9.30;99.90;;;;;;5048383;28;19974;-86
2021/09/28 06:27:41;;;;;;;;;;;9.40;99.90;;;;;;5066132;28;19915;-84
2021/09/28 06:30:07;;;;;;;;;;;9.40;99.90;;;;;;5042200;28;20010;-86
2021/09/28 06:32:32;;;;;;;;;;;9.60;99.90;;;;;;5053082;28;20007;-86
2021/09/28 06:34:58;;;;;;;;;;;9.70;99.90;;;;;;5048056;28;19909;-86
2021/09/28 06:37:23;;;;;;;;;;;9.80;99.90;;;;;;5059885;28;19908;-86
2021/09/28 06:39:49;;;;;;;;;;;9.90;99.90;;;;;;5053356;28;20709;-85
2021/09/28 06:42:14;;;;;;;;;;;9.90;99.90;;;;;;5056417;28;19912;-86
2021/09/28 06:44:40;;;;;;;;;;;9.80;99.90;;;;;;5054253;28;20341;-84
2021/09/28 06:47:05;;;;;;;;;;;9.90;99.90;;;;;;5050447;28;20008;-86
2021/09/28 06:49:31;;;;;;;;;;;9.80;99.90;;;;;;5036853;28;19909;-86
2021/09/28 06:51:57;;;;;;;;;;;9.80;99.90;;;;;;5055349;28;19919;-85
2021/09/28 06:54:23;;;;;;;;;;;10.00;99.90;;;;;;5058786;28;19909;-86
2021/09/28 06:56:48;;;;;;;;;;;10.00;99.90;;;;;;5044240;28;19917;-85
2021/09/28 06:59:14;;;;;;;;;;;10.10;99.90;;;;;;5048115;28;19909;-86
2021/09/28 07:01:40;;;;;;;;;;;10.20;99.90;;;;;;5048266;28;20356;-87
2021/09/28 07:04:05;;;;;;;;;;;10.00;99.90;;;;;;5048130;28;19919;-86
2021/09/28 07:06:31;;;;;;;;;;;10.00;99.90;;;;;;5048230;28;19912;-86
2021/09/28 07:08:57;;;;;;;;;;;10.30;99.90;;;;;;5043954;28;19913;-86
2021/09/28 07:11:23;;;;;;;;;;;10.50;99.90;;;;;;5039196;28;19916;-86
2021/09/28 07:13:48;;;;;;;;;;;10.80;99.90;;;;;;5048325;28;19908;-86
2021/09/28 07:16:14;;;;;;;;;;;11.00;99.90;;;;;;5043572;28;19996;-87
2021/09/28 07:18:40;;;;;;;;;;;11.10;99.90;;;;;;5041674;28;19956;-86
2021/09/28 07:21:06;;;;;;;;;;;11.10;99.90;;;;;;5074438;28;19948;-86
2021/09/28 07:23:37;;;;;;;;;;;11.30;99.90;;;;;;5036321;28;19954;-87
2021/09/28 07:26:03;;;;;;;;;;;11.40;99.90;;;;;;5087073;28;19970;-87
2021/09/28 07:28:29;;;;;;;;;;;11.50;99.90;;;;;;5067877;28;19908;-87
2021/09/28 07:30:54;;;;;;;;;;;11.60;99.90;;;;;;5063451;28;19931;-86
2021/09/28 07:33:20;;;;;;;;;;;11.70;99.90;;;;;;5082628;28;19933;-86
2021/09/28 07:35:46;;;;;;;;;;;11.80;99.90;;;;;;5077366;28;19919;-86
2021/09/28 07:38:15;;;;;;;;;;;11.90;99.90;;;;;;5057342;28;19913;-86
2021/09/28 07:40:41;;;;;;;;;;;12.00;99.90;;;;;;5063637;28;20027;-88
2021/09/28 07:43:07;;;;;;;;;;;12.10;99.90;;;;;;5047206;28;19913;-87
2021/09/28 07:45:32;;;;;;;;;;;12.20;99.90;;;;;;5058992;28;19908;-87
2021/09/28 07:47:58;;;;;;;;;;;12.30;99.90;;;;;;5046772;28;19913;-87
2021/09/28 07:50:23;;;;;;;;;;;13.40;99.90;;;;;;5050213;28;20368;-85
2021/09/28 07:52:49;;;;;;;;;;;15.50;99.90;;;;;;5054907;28;19916;-88
2021/09/28 07:55:15;;;;;;;;;;;17.20;99.90;;;;;;5058162;28;20581;-87
2021/09/28 07:57:40;;;;;;;;;;;17.80;99.90;;;;;;5056982;28;19909;-87
2021/09/28 08:00:07;;;;;;;;;;;16.80;99.90;;;;;;5075509;28;19916;-89
2021/09/28 08:02:34;;;;;;;;;;;17.40;99.90;;;;;;5057232;28;20402;-89
2021/09/28 08:05:00;;;;;;;;;;;17.90;99.90;;;;;;5069856;28;19913;-85
2021/09/28 08:07:26;;;;;;;;;;;18.80;99.90;;;;;;5056332;28;19932;-85
2021/09/28 08:09:51;;;;;;;;;;;19.40;99.90;;;;;;5073945;28;19969;-86
2021/09/28 08:12:17;;;;;;;;;;;19.50;99.90;;;;;;5057283;28;19975;-87
2021/09/28 08:14:42;;;;;;;;;;;20.10;99.90;;;;;;5067021;28;19909;-86
2021/09/28 08:17:08;;;;;;;;;;;17.70;99.90;;;;;;5075265;28;20003;-86
2021/09/28 08:19:33;;;;;;;;;;;19.00;99.90;;;;;;5054975;28;19909;-86
2021/09/28 08:22:00;;;;;;;;;;;18.80;99.90;;;;;;5048186;28;19924;-87
2021/09/28 08:24:26;;;;;;;;;;;18.90;99.90;;;;;;5040651;28;19915;-86
2021/09/28 08:29:35;;;;;;;;;;;15.90;99.90;;;;;;5056003;28;19915;-86
2021/09/28 08:32:01;;;;;;;;;;;15.10;99.90;;;;;;5056392;28;19908;-86
2021/09/28 08:34:26;;;;;;;;;;;14.60;99.90;;;;;;5038419;28;19919;-86
2021/09/28 08:36:52;;;;;;;;;;;14.60;99.90;;;;;;5053996;28;19930;-86
2021/09/28 08:39:17;;;;;;;;;;;17.10;99.90;;;;;;5060337;28;20294;-87
2021/09/28 08:41:45;;;;;;;;;;;20.70;99.90;;;;;;5056641;28;20314;-86
2021/09/28 08:44:11;;;;;;;;;;;21.90;99.90;;;;;;5042035;28;19908;-87
2021/09/28 08:46:37;;;;;;;;;;;22.00;99.90;;;;;;5052161;28;19912;-86
2021/09/28 08:49:03;;;;;;;;;;;22.60;99.90;;;;;;5043962;28;19908;-86
2021/09/28 08:51:29;;;;;;;;;;;21.80;99.90;;;;;;5059224;28;19917;-86
2021/09/28 08:53:54;;;;;;;;;;;21.00;99.90;;;;;;5037176;28;19909;-86
2021/09/28 08:56:20;;;;;;;;;;;22.20;99.90;;;;;;5056806;28;20445;-86
2021/09/28 08:58:52;;;;;;;;;;;22.30;98.40;;;;;;5061348;28;19915;-85
2021/09/28 09:01:18;;;;;;;;;;;22.90;99.60;;;;;;5074485;28;20018;-85
2021/09/28 09:03:43;;;;;;;;;;;20.50;99.90;;;;;;5056179;28;19953;-86
2021/09/28 09:06:09;;;;;;;;;;;20.40;99.90;;;;;;5056496;28;20011;-85
2021/09/28 09:08:35;;;;;;;;;;;19.40;99.90;;;;;;5056312;28;19920;-85
2021/09/28 09:11:08;;;;;;;;;;;17.80;99.90;;;;;;5052905;28;19909;-85
2021/09/28 09:13:39;;;;;;;;;;;17.10;99.90;;;;;;5043217;28;19959;-85
2021/09/28 09:16:05;;;;;;;;;;;20.40;99.90;;;;;;5053489;28;20384;-86
2021/09/28 09:18:34;;;;;;;;;;;21.50;98.90;;;;;;5056719;28;19967;-85
2021/09/28 09:21:01;;;;;;;;;;;18.40;99.90;;;;;;5060815;28;20266;-85
2021/09/28 09:23:28;;;;;;;;;;;17.00;99.90;;;;;;5038608;28;19912;-86
2021/09/28 09:26:01;;;;;;;;;;;20.00;99.90;;;;;;5057022;28;19909;-85
2021/09/28 09:28:31;;;;;;;;;;;18.20;99.90;;;;;;5043447;28;19917;-86
2021/09/28 09:31:12;;;;;;;;;;;16.20;99.90;;;;;;5053102;28;19916;-85
2021/09/28 09:33:42;;;;;;;;;;;15.20;99.90;;;;;;5054258;28;19949;-85
2021/09/28 09:36:08;;;;;;;;;;;15.00;99.90;;;;;;5049472;28;20288;-86
2021/09/28 09:39:04;;;;;;;;;;;14.90;99.90;;;;;;5054397;28;19909;-86
2021/09/28 09:41:31;;;;;;;;;;;14.90;99.90;;;;;;5054044;28;19916;-85
2021/09/28 09:44:00;;;;;;;;;;;15.20;99.90;;;;;;5069092;28;19972;-84
2021/09/28 09:46:37;;;;;;;;;;;15.00;99.90;;;;;;5081474;28;19968;-85
2021/09/28 09:49:04;;;;;;;;;;;17.40;99.90;;;;;;5087917;28;19921;-85
2021/09/28 09:51:38;;;;;;;;;;;19.40;99.90;;;;;;5084375;28;19913;-85
2021/09/28 09:54:04;;;;;;;;;;;18.30;99.90;;;;;;5072505;28;20434;-85
2021/09/28 09:56:49;;;;;;;;;;;17.30;99.90;;;;;;5059713;28;19916;-85
2021/09/28 09:59:16;;;;;;;;;;;16.80;99.90;;;;;;5063138;28;19920;-85
2021/09/28 10:01:42;;;;;;;;;;;16.80;99.90;;;;;;5055459;28;19963;-85
2021/09/28 10:04:12;;;;;;;;;;;17.80;99.90;;;;;;5053009;28;19951;-87
2021/09/28 10:06:38;;;;;;;;;;;16.50;99.90;;;;;;5071047;28;19916;-87
2021/09/28 10:09:27;;;;;;;;;;;16.10;99.90;;;;;;5055139;28;20004;-86
2021/09/28 10:11:53;;;;;;;;;;;15.90;99.90;;;;;;5042685;28;19916;-85
2021/09/28 10:14:35;;;;;;;;;;;16.20;99.90;;;;;;5071326;28;19915;-86
2021/09/28 10:17:21;;;;;;;;;;;16.00;99.90;;;;;;5071901;28;19912;-86
2021/09/28 10:19:59;;;;;;;;;;;15.40;99.90;;;;;;5051165;28;20579;-87
2021/09/28 10:22:48;;;;;;;;;;;15.30;99.90;;;;;;5058080;28;19919;-86
2021/09/28 10:25:23;;;;;;;;;;;15.00;99.90;;;;;;5049000;28;19908;-87
2021/09/28 10:27:53;;;;;;;;;;;15.10;99.90;;;;;;5062335;28;20395;-87
2021/09/28 10:30:38;;;;;;;;;;;15.00;99.90;;;;;;5053127;28;19909;-87
2021/09/28 10:33:23;;;;;;;;;;;15.20;99.90;;;;;;5039998;28;19912;-87
2021/09/28 10:35:54;;;;;;;;;;;15.00;99.90;;;;;;5088822;28;19908;-88
2021/09/28 10:38:39;;;;;;;;;;;15.20;99.90;;;;;;5071703;28;19997;-87
2021/09/28 10:41:06;;;;;;;;;;;15.30;99.90;;;;;;5049935;28;19919;-86
2021/09/28 10:43:32;;;;;;;;;;;15.20;99.90;;;;;;5071693;28;19909;-87
2021/09/28 10:46:00;;;;;;;;;;;15.20;99.90;;;;;;5055967;28;19915;-87
2021/09/28 10:48:28;;;;;;;;;;;15.50;99.90;;;;;;5056477;28;19909;-86
2021/09/28 10:51:09;;;;;;;;;;;16.20;99.90;;;;;;5066242;28;19916;-88
2021/09/28 10:53:36;;;;;;;;;;;17.20;99.90;;;;;;5049815;28;20298;-87
2021/09/28 10:56:04;;;;;;;;;;;17.70;99.90;;;;;;5055034;28;19921;-87
2021/09/28 10:58:48;;;;;;;;;;;18.40;99.90;;;;;;5060825;28;19952;-87
2021/09/28 11:01:14;;;;;;;;;;;17.10;99.90;;;;;;5049652;28;19962;-87
2021/09/28 11:03:42;;;;;;;;;;;16.50;99.90;;;;;;5060475;28;19908;-87
2021/09/28 11:06:08;;;;;;;;;;;15.90;99.90;;;;;;5074303;28;20610;-86
2021/09/28 11:08:41;;;;;;;;;;;15.80;99.90;;;;;;5059429;28;19951;-86
2021/09/28 11:11:10;;;;;;;;;;;15.80;99.90;;;;;;5041365;28;20303;-87
2021/09/28 11:13:40;;;;;;;;;;;16.30;99.90;;;;;;5053162;28;19952;-87
2021/09/28 11:16:08;;;;;;;;;;;15.80;99.90;;;;;;5048592;28;19908;-87
2021/09/28 11:18:34;;;;;;;;;;;15.80;99.90;;;;;;5044025;28;19909;-87
2021/09/28 11:21:10;;;;;;;;;;;18.10;99.90;;;;;;5052662;28;20296;-88
2021/09/28 11:23:35;;;;;;;;;;;17.20;99.90;;;;;;5041424;28;19916;-87
2021/09/28 11:26:01;;;;;;;;;;;16.30;99.90;;;;;;5066437;28;19912;-87
2021/09/28 11:28:26;;;;;;;;;;;16.70;99.90;;;;;;5044474;28;19916;-87
2021/09/28 11:31:00;;;;;;;;;;;20.10;99.90;;;;;;5041931;28;19992;-86
2021/09/28 11:33:26;;;;;;;;;;;22.60;96.60;;;;;;5054247;28;19909;-87
2021/09/28 11:35:56;;;;;;;;;;;23.00;94.50;;;;;;5056268;28;19973;-86
2021/09/28 11:38:32;;;;;;;;;;;22.70;94.10;;;;;;5051579;28;19909;-87
2021/09/28 11:40:59;;;;;;;;;;;22.70;93.70;;;;;;5070986;28;19949;-87
2021/09/28 11:43:25;;;;;;;;;;;21.10;94.40;;;;;;5060871;28;19908;-86
2021/09/28 11:46:02;;;;;;;;;;;18.90;95.60;;;;;;5052714;28;20280;-86
2021/09/28 11:48:28;;;;;;;;;;;17.60;99.00;;;;;;5053503;28;19920;-87
2021/09/28 11:51:04;;;;;;;;;;;17.10;99.90;;;;;;5050118;28;19908;-86
2021/09/28 11:53:35;;;;;;;;;;;17.00;99.80;;;;;;5064398;28;19909;-86
2021/09/28 11:56:00;;;;;;;;;;;16.90;99.90;;;;;;5076213;28;19916;-86
2021/09/28 11:58:26;;;;;;;;;;;16.90;99.90;;;;;;5054221;28;19915;-86
2021/09/28 12:00:51;;;;;;;;;;;17.00;99.90;;;;;;5046919;28;20287;-87
2021/09/28 12:03:23;;;;;;;;;;;16.90;99.90;;;;;;5034792;28;19913;-86
2021/09/28 12:08:24;;;;;;;;;;;16.50;99.90;;;;;;5058356;28;20327;-87
2021/09/28 12:10:50;;;;;;;;;;;16.70;99.90;;;;;;5060179;28;19962;-86
2021/09/28 12:13:16;;;;;;;;;;;16.60;99.90;;;;;;5054133;28;20113;-86
2021/09/28 12:15:57;;;;;;;;;;;16.60;99.90;;;;;;5060077;28;19908;-86
2021/09/28 12:18:23;;;;;;;;;;;16.60;99.90;;;;;;5089990;28;19921;-85
2021/09/28 12:20:48;;;;;;;;;;;16.30;99.90;;;;;;5048457;28;20426;-86
2021/09/28 12:23:15;;;;;;;;;;;16.30;99.90;;;;;;5063346;28;19909;-86
2021/09/28 12:25:43;;;;;;;;;;;16.20;99.90;;;;;;5057886;28;20264;-85
2021/09/28 12:28:13;;;;;;;;;;;16.50;99.90;;;;;;5048635;28;19913;-86
2021/09/28 12:30:49;;;;;;;;;;;16.50;99.90;;;;;;5080502;28;19963;-86
2021/09/28 12:33:15;;;;;;;;;;;16.40;99.90;;;;;;5057533;28;19931;-85
2021/09/28 12:35:41;;;;;;;;;;;16.30;99.90;;;;;;5046854;28;19908;-84
2021/09/28 12:38:09;;;;;;;;;;;16.40;99.90;;;;;;5054759;28;19908;-86
2021/09/28 12:40:38;;;;;;;;;;;16.60;99.90;;;;;;5067403;28;19908;-85
2021/09/28 12:43:05;;;;;;;;;;;16.60;99.90;;;;;;5053015;28;19966;-86
2021/09/28 12:46:02;;;;;;;;;;;16.60;99.90;;;;;;5048166;28;20044;-86
2021/09/28 12:48:35;;;;;;;;;;;16.70;99.90;;;;;;5030482;28;19920;-86
2021/09/28 12:51:01;;;;;;;;;;;16.60;99.90;;;;;;5043848;28;19951;-85
2021/09/28 12:53:27;;;;;;;;;;;16.60;99.90;;;;;;5075310;28;19909;-86
2021/09/28 12:55:53;;;;;;;;;;;16.90;99.90;;;;;;5057393;28;19917;-86
2021/09/28 12:58:18;;;;;;;;;;;16.70;99.90;;;;;;5050863;28;19959;-84
2021/09/28 13:00:44;;;;;;;;;;;16.80;99.90;;;;;;5056256;28;19908;-85
2021/09/28 13:03:19;;;;;;;;;;;16.70;99.90;;;;;;5055496;28;19913;-87
2021/09/28 13:05:47;;;;;;;;;;;16.60;99.90;;;;;;5046229;28;19916;-85
2021/09/28 13:08:12;;;;;;;;;;;16.80;99.90;;;;;;5057285;28;19909;-86
2021/09/28 13:10:38;;;;;;;;;;;17.00;99.90;;;;;;5055315;28;19950;-86
2021/09/28 13:13:03;;;;;;;;;;;17.10;99.90;;;;;;5050230;28;19908;-87
2021/09/28 13:15:28;;;;;;;;;;;17.00;99.90;;;;;;5045172;28;19999;-86
2021/09/28 13:17:54;;;;;;;;;;;17.00;99.90;;;;;;5061735;28;19916;-86
2021/09/28 13:20:22;;;;;;;;;;;17.10;99.90;;;;;;5052223;28;20470;-86
2021/09/28 13:22:48;;;;;;;;;;;17.30;99.90;;;;;;5036824;28;19917;-86
2021/09/28 13:25:14;;;;;;;;;;;17.20;99.90;;;;;;5050949;28;19916;-85
2021/09/28 13:27:39;;;;;;;;;;;17.10;99.90;;;;;;5074477;28;19947;-87
2021/09/28 13:30:05;;;;;;;;;;;16.70;99.90;;;;;;5042824;28;19959;-86
2021/09/28 13:32:31;;;;;;;;;;;16.80;99.90;;;;;;5043284;28;19913;-85
2021/09/28 13:34:57;;;;;;;;;;;16.90;99.90;;;;;;5056835;28;19915;-85
2021/09/28 13:37:26;;;;;;;;;;;16.70;99.90;;;;;;5074385;28;19916;-85
2021/09/28 13:39:51;;;;;;;;;;;16.70;99.90;;;;;;5067829;28;19915;-85
2021/09/28 13:42:17;;;;;;;;;;;16.90;99.90;;;;;;5037064;28;19917;-86
2021/09/28 13:44:42;;;;;;;;;;;16.80;99.90;;;;;;5056080;28;19908;-87
2021/09/28 13:47:08;;;;;;;;;;;16.80;99.90;;;;;;5056572;28;19913;-85
2021/09/28 13:49:33;;;;;;;;;;;17.00;99.90;;;;;;5037737;28;19908;-86
2021/09/28 13:51:59;;;;;;;;;;;17.00;99.90;;;;;;5043043;28;20296;-85
2021/09/28 13:54:24;;;;;;;;;;;16.60;99.90;;;;;;5049482;28;19909;-86
2021/09/28 13:56:50;;;;;;;;;;;16.60;99.90;;;;;;5067840;28;19917;-85
2021/09/28 13:59:15;;;;;;;;;;;16.60;99.90;;;;;;5056614;28;19908;-86
2021/09/28 14:01:41;;;;;;;;;;;16.70;99.90;;;;;;5063562;28;19912;-86
2021/09/28 14:04:06;;;;;;;;;;;16.70;99.90;;;;;;5042899;28;20307;-86
2021/09/28 14:06:32;;;;;;;;;;;16.80;99.90;;;;;;5056209;28;19915;-85
2021/09/28 14:08:57;;;;;;;;;;;16.80;99.90;;;;;;5073945;28;20391;-85
2021/09/28 14:11:23;;;;;;;;;;;16.70;99.90;;;;;;5089555;28;19909;-85
2021/09/28 14:13:48;;;;;;;;;;;16.50;99.90;;;;;;5049170;28;19909;-85
2021/09/28 14:16:14;;;;;;;;;;;16.70;99.90;;;;;;5060686;28;20021;-85
2021/09/28 14:18:40;;;;;;;;;;;16.40;99.90;;;;;;5040023;28;19995;-84
2021/09/28 14:21:06;;;;;;;;;;;16.60;99.90;;;;;;5069286;28;19908;-85
2021/09/28 14:23:31;;;;;;;;;;;16.90;99.90;;;;;;5055626;28;20434;-86